createdAt,value
2018-03-10T00:00:40.213Z,0
2018-03-10T00:01:40.942Z,0
2018-03-10T00:02:41.660Z,0
2018-03-10T00:03:42.376Z,0
2018-03-10T00:04:43.108Z,0
2018-03-10T00:05:43.838Z,0
2018-03-10T00:06:44.562Z,0
2018-03-10T00:07:45.291Z,0
2018-03-10T00:08:46.020Z,0
2018-03-10T00:09:46.738Z,0
2018-03-10T00:10:47.467Z,0
2018-03-10T00:11:48.194Z,0
2018-03-10T00:12:48.959Z,0
2018-03-10T00:13:49.679Z,0
2018-03-10T00:14:50.407Z,0
2018-03-10T00:15:51.135Z,0
2018-03-10T00:16:51.853Z,0
2018-03-10T00:17:52.583Z,0
2018-03-10T00:18:53.340Z,0
2018-03-10T00:19:54.092Z,0
2018-03-10T00:20:54.856Z,0
2018-03-10T00:21:55.573Z,0
2018-03-10T00:22:56.323Z,0
2018-03-10T00:23:57.051Z,0
2018-03-10T00:24:57.768Z,0
2018-03-10T00:25:58.486Z,0
2018-03-10T00:26:59.203Z,0
2018-03-10T00:27:59.932Z,0
2018-03-10T00:29:00.647Z,0
2018-03-10T00:30:01.378Z,0
2018-03-10T00:31:02.097Z,0
2018-03-10T00:32:02.836Z,0
2018-03-10T00:33:03.570Z,0
2018-03-10T00:34:04.296Z,0
2018-03-10T00:35:05.014Z,0
2018-03-10T00:36:05.732Z,0
2018-03-10T00:37:06.450Z,0
2018-03-10T00:38:07.180Z,0
2018-03-10T00:39:07.897Z,0
2018-03-10T00:40:08.628Z,0
2018-03-10T00:41:09.346Z,0
2018-03-10T00:42:10.074Z,0
2018-03-10T00:43:10.792Z,0
2018-03-10T00:44:11.519Z,0
2018-03-10T00:45:12.246Z,0
2018-03-10T00:46:12.967Z,0
2018-03-10T00:47:13.704Z,0
2018-03-10T00:48:14.424Z,0
2018-03-10T00:49:15.140Z,0
2018-03-10T00:50:15.867Z,0
2018-03-10T00:51:16.586Z,0
2018-03-10T00:52:17.316Z,0
2018-03-10T00:53:18.036Z,0
2018-03-10T00:54:18.784Z,0
2018-03-10T00:55:19.514Z,0
2018-03-10T00:56:20.243Z,0
2018-03-10T00:57:20.997Z,0
2018-03-10T00:58:21.747Z,0
2018-03-10T00:59:22.466Z,0
2018-03-10T01:00:23.184Z,0
2018-03-10T01:01:23.912Z,0
2018-03-10T01:02:24.630Z,0
2018-03-10T01:03:25.346Z,0
2018-03-10T01:04:26.064Z,0
2018-03-10T01:05:26.791Z,0
2018-03-10T01:06:27.509Z,0
2018-03-10T01:07:28.239Z,0
2018-03-10T01:08:29.003Z,0
2018-03-10T01:09:29.731Z,0
2018-03-10T01:10:30.447Z,0
2018-03-10T01:11:31.175Z,0
2018-03-10T01:12:31.939Z,0
2018-03-10T01:13:32.668Z,0
2018-03-10T01:14:33.397Z,0
2018-03-10T01:15:34.117Z,0
2018-03-10T01:16:34.831Z,0
2018-03-10T01:17:35.549Z,0
2018-03-10T01:18:36.301Z,0
2018-03-10T01:19:37.017Z,0
2018-03-10T01:20:37.745Z,0
2018-03-10T01:21:38.465Z,0
2018-03-10T01:22:39.183Z,0
2018-03-10T01:23:39.918Z,0
2018-03-10T01:24:40.618Z,0
2018-03-10T01:25:41.325Z,0
2018-03-10T01:26:42.032Z,0
2018-03-10T01:27:42.753Z,0
2018-03-10T01:28:43.474Z,0
2018-03-10T01:29:44.180Z,0
2018-03-10T01:30:44.887Z,0
2018-03-10T01:31:45.593Z,0
2018-03-10T01:32:46.301Z,0
2018-03-10T01:33:47.009Z,0
2018-03-10T01:34:47.726Z,0
2018-03-10T01:35:48.433Z,0
2018-03-10T01:36:49.150Z,0
2018-03-10T01:37:49.865Z,0
2018-03-10T01:38:50.568Z,0
2018-03-10T01:39:51.283Z,0
2018-03-10T01:40:51.991Z,0
2018-03-10T01:41:52.711Z,0
2018-03-10T01:42:53.421Z,0
2018-03-10T01:43:54.140Z,0
2018-03-10T01:44:54.859Z,0
2018-03-10T01:45:55.566Z,0
2018-03-10T01:46:56.286Z,0
2018-03-10T01:47:56.989Z,0
2018-03-10T01:48:57.697Z,0
2018-03-10T01:49:58.404Z,0
2018-03-10T01:50:59.111Z,0
2018-03-10T01:51:59.819Z,0
2018-03-10T01:53:00.529Z,0
2018-03-10T01:54:01.233Z,0
2018-03-10T01:55:01.941Z,0
2018-03-10T01:56:02.649Z,0
2018-03-10T01:57:03.355Z,0
2018-03-10T01:58:04.063Z,0
2018-03-10T01:59:04.772Z,0
2018-03-10T02:00:05.479Z,0
2018-03-10T02:01:06.186Z,0
2018-03-10T02:02:06.894Z,0
2018-03-10T02:03:07.613Z,0
2018-03-10T02:04:08.320Z,0
2018-03-10T02:05:09.026Z,0
2018-03-10T02:06:09.735Z,0
2018-03-10T02:07:10.441Z,0
2018-03-10T02:08:11.148Z,0
2018-03-10T02:09:11.857Z,0
2018-03-10T02:10:12.574Z,0
2018-03-10T02:11:13.281Z,0
2018-03-10T02:12:13.988Z,0
2018-03-10T02:13:14.694Z,0
2018-03-10T02:14:15.400Z,0
2018-03-10T02:15:16.123Z,0
2018-03-10T02:16:16.830Z,0
2018-03-10T02:17:17.539Z,0
2018-03-10T02:18:18.247Z,0
2018-03-10T02:19:18.959Z,0
2018-03-10T02:20:19.676Z,0
2018-03-10T02:21:20.383Z,0
2018-03-10T02:22:21.089Z,0
2018-03-10T02:23:21.797Z,0
2018-03-10T02:24:22.514Z,0
2018-03-10T02:25:23.233Z,0
2018-03-10T02:26:23.939Z,0
2018-03-10T02:27:24.646Z,0
2018-03-10T02:28:25.353Z,0
2018-03-10T02:29:26.060Z,0
2018-03-10T02:30:26.779Z,0
2018-03-10T02:31:27.499Z,0
2018-03-10T02:32:28.220Z,0
2018-03-10T02:33:28.927Z,0
2018-03-10T02:34:29.633Z,0
2018-03-10T02:35:30.339Z,0
2018-03-10T02:36:31.057Z,0
2018-03-10T02:37:31.765Z,0
2018-03-10T02:38:32.472Z,0
2018-03-10T02:39:33.177Z,0
2018-03-10T02:40:33.884Z,0
2018-03-10T02:41:34.589Z,0
2018-03-10T02:42:35.296Z,0
2018-03-10T02:43:36.002Z,0
2018-03-10T02:44:36.721Z,0
2018-03-10T02:45:37.427Z,0
2018-03-10T02:46:38.135Z,0
2018-03-10T02:47:38.841Z,0
2018-03-10T02:48:39.548Z,0
2018-03-10T02:49:40.265Z,0
2018-03-10T02:50:40.984Z,0
2018-03-10T02:51:41.693Z,0
2018-03-10T02:52:42.400Z,0
2018-03-10T02:53:43.106Z,0
2018-03-10T02:54:43.811Z,0
2018-03-10T02:55:44.519Z,0
2018-03-10T02:56:45.226Z,0
2018-03-10T02:57:45.933Z,0
2018-03-10T02:58:46.640Z,0
2018-03-10T02:59:47.346Z,0
2018-03-10T03:00:48.055Z,0
2018-03-10T03:01:48.776Z,0
2018-03-10T03:02:49.483Z,0
2018-03-10T03:03:50.190Z,0
2018-03-10T03:04:50.911Z,0
2018-03-10T03:05:51.619Z,0
2018-03-10T03:06:52.328Z,0
2018-03-10T03:07:53.036Z,0
2018-03-10T03:08:53.744Z,0
2018-03-10T03:09:54.451Z,0
2018-03-10T03:10:55.159Z,0
2018-03-10T03:11:55.866Z,0
2018-03-10T03:12:56.573Z,0
2018-03-10T03:13:57.282Z,0
2018-03-10T03:14:57.990Z,0
2018-03-10T03:15:58.699Z,0
2018-03-10T03:16:59.421Z,0
2018-03-10T03:18:00.131Z,0
2018-03-10T03:19:00.846Z,0
2018-03-10T03:20:01.555Z,0
2018-03-10T03:21:02.263Z,0
2018-03-10T03:22:02.982Z,0
2018-03-10T03:23:03.688Z,0
2018-03-10T03:24:04.394Z,0
2018-03-10T03:25:05.115Z,0
2018-03-10T03:26:05.824Z,0
2018-03-10T03:27:06.531Z,0
2018-03-10T03:28:07.239Z,0
2018-03-10T03:29:07.947Z,0
2018-03-10T03:30:08.655Z,0
2018-03-10T03:31:09.363Z,0
2018-03-10T03:32:10.071Z,0
2018-03-10T03:33:10.780Z,0
2018-03-10T03:34:11.487Z,0
2018-03-10T03:35:12.197Z,0
2018-03-10T03:36:12.904Z,0
2018-03-10T03:37:13.613Z,0
2018-03-10T03:38:14.334Z,0
2018-03-10T03:39:15.041Z,0
2018-03-10T03:40:15.747Z,0
2018-03-10T03:41:16.466Z,0
2018-03-10T03:42:17.173Z,0
2018-03-10T03:43:17.880Z,0
2018-03-10T03:44:18.587Z,0
2018-03-10T03:45:19.293Z,0
2018-03-10T03:46:19.998Z,0
2018-03-10T03:47:20.706Z,0
2018-03-10T03:48:21.412Z,0
2018-03-10T03:49:22.118Z,0
2018-03-10T03:50:22.835Z,0
2018-03-10T03:51:23.542Z,0
2018-03-10T03:52:24.262Z,0
2018-03-10T03:53:24.970Z,0
2018-03-10T03:54:25.690Z,0
2018-03-10T03:55:26.395Z,0
2018-03-10T03:56:27.102Z,0
2018-03-10T03:57:27.811Z,0
2018-03-10T03:58:28.531Z,0
2018-03-10T03:59:29.240Z,0
2018-03-10T04:00:29.961Z,0
2018-03-10T04:01:30.666Z,0
2018-03-10T04:02:31.383Z,0
2018-03-10T04:03:32.101Z,0
2018-03-10T04:04:32.809Z,0
2018-03-10T04:05:33.513Z,0
2018-03-10T04:06:34.220Z,0
2018-03-10T04:07:34.942Z,0
2018-03-10T04:08:35.650Z,0
2018-03-10T04:09:36.370Z,0
2018-03-10T04:10:37.078Z,0
2018-03-10T04:11:37.785Z,0
2018-03-10T04:12:38.505Z,0
2018-03-10T04:13:39.210Z,0
2018-03-10T04:14:39.916Z,0
2018-03-10T04:15:40.623Z,0
2018-03-10T04:16:41.343Z,0
2018-03-10T04:17:42.051Z,0
2018-03-10T04:18:42.758Z,0
2018-03-10T04:19:43.479Z,0
2018-03-10T04:20:44.186Z,0
2018-03-10T04:21:44.894Z,0
2018-03-10T04:22:45.604Z,0
2018-03-10T04:23:46.322Z,0
2018-03-10T04:24:47.030Z,0
2018-03-10T04:25:47.738Z,0
2018-03-10T04:26:48.451Z,0
2018-03-10T04:27:49.155Z,0
2018-03-10T04:28:49.864Z,0
2018-03-10T04:29:50.573Z,0
2018-03-10T04:30:51.281Z,0
2018-03-10T04:31:51.990Z,0
2018-03-10T04:32:52.711Z,0
2018-03-10T04:33:53.420Z,0
2018-03-10T04:34:54.148Z,0
2018-03-10T04:35:54.924Z,0
2018-03-10T04:36:55.581Z,0
2018-03-10T04:37:56.288Z,0
2018-03-10T04:38:57.007Z,0
2018-03-10T04:39:57.727Z,0
2018-03-10T04:40:58.448Z,0
2018-03-10T04:41:59.157Z,0
2018-03-10T04:42:59.867Z,0
2018-03-10T04:44:00.580Z,0
2018-03-10T04:45:01.284Z,0
2018-03-10T04:46:01.994Z,0
2018-03-10T04:47:02.703Z,0
2018-03-10T04:48:03.411Z,0
2018-03-10T04:49:04.120Z,0
2018-03-10T04:50:04.829Z,0
2018-03-10T04:51:05.538Z,0
2018-03-10T04:52:06.258Z,0
2018-03-10T04:53:06.962Z,0
2018-03-10T04:54:07.668Z,0
2018-03-10T04:55:08.375Z,0
2018-03-10T04:56:09.081Z,0
2018-03-10T04:57:09.799Z,0
2018-03-10T04:58:10.506Z,0
2018-03-10T04:59:11.214Z,0
2018-03-10T05:00:11.920Z,0
2018-03-10T05:01:12.628Z,0
2018-03-10T05:02:13.335Z,0
2018-03-10T05:03:14.055Z,0
2018-03-10T05:04:14.762Z,0
2018-03-10T05:05:15.469Z,0
2018-03-10T05:06:16.176Z,0
2018-03-10T05:07:16.882Z,0
2018-03-10T05:08:17.619Z,0
2018-03-10T05:09:18.323Z,0
2018-03-10T05:10:19.029Z,0
2018-03-10T05:11:19.737Z,0
2018-03-10T05:12:20.444Z,0
2018-03-10T05:13:21.148Z,0
2018-03-10T05:14:21.860Z,0
2018-03-10T05:15:22.564Z,0
2018-03-10T05:16:23.284Z,0
2018-03-10T05:17:23.992Z,0
2018-03-10T05:18:24.700Z,0
2018-03-10T05:19:25.420Z,0
2018-03-10T05:20:26.168Z,0
2018-03-10T05:21:26.876Z,0
2018-03-10T05:22:27.586Z,0
2018-03-10T05:23:28.295Z,0
2018-03-10T05:24:29.003Z,0
2018-03-10T05:25:29.711Z,0
2018-03-10T05:26:30.419Z,0
2018-03-10T05:27:31.129Z,0
2018-03-10T05:28:31.837Z,0
2018-03-10T05:29:32.546Z,0
2018-03-10T05:30:33.255Z,0
2018-03-10T05:31:33.966Z,4
2018-03-10T05:32:34.670Z,4
2018-03-10T05:33:35.381Z,4
2018-03-10T05:34:36.103Z,4
2018-03-10T05:35:36.810Z,4
2018-03-10T05:36:37.517Z,8
2018-03-10T05:37:38.225Z,4
2018-03-10T05:38:38.933Z,8
2018-03-10T05:39:39.643Z,12
2018-03-10T05:40:40.351Z,16
2018-03-10T05:41:41.073Z,20
2018-03-10T05:42:41.781Z,20
2018-03-10T05:43:42.490Z,28
2018-03-10T05:44:43.202Z,32
2018-03-10T05:45:43.912Z,40
2018-03-10T05:46:44.618Z,44
2018-03-10T05:47:45.328Z,48
2018-03-10T05:48:46.060Z,52
2018-03-10T05:49:46.768Z,60
2018-03-10T05:50:47.492Z,64
2018-03-10T05:51:48.239Z,76
2018-03-10T05:52:48.932Z,80
2018-03-10T05:53:49.614Z,84
2018-03-10T05:54:50.322Z,92
2018-03-10T05:55:51.032Z,100
2018-03-10T05:56:51.738Z,112
2018-03-10T05:57:52.446Z,128
2018-03-10T05:58:53.199Z,148
2018-03-10T05:59:53.909Z,160
2018-03-10T06:00:54.630Z,176
2018-03-10T06:01:55.341Z,188
2018-03-10T06:02:56.065Z,208
2018-03-10T06:03:56.776Z,232
2018-03-10T06:04:57.494Z,256
2018-03-10T06:05:58.199Z,272
2018-03-10T06:06:58.910Z,296
2018-03-10T06:07:59.631Z,308
2018-03-10T06:09:00.353Z,332
2018-03-10T06:10:01.078Z,360
2018-03-10T06:11:01.789Z,396
2018-03-10T06:12:02.498Z,428
2018-03-10T06:13:03.249Z,460
2018-03-10T06:14:03.959Z,480
2018-03-10T06:15:04.670Z,512
2018-03-10T06:16:05.392Z,552
2018-03-10T06:17:06.162Z,596
2018-03-10T06:18:06.813Z,656
2018-03-10T06:19:07.525Z,720
2018-03-10T06:20:08.240Z,784
2018-03-10T06:21:08.952Z,848
2018-03-10T06:22:09.653Z,912
2018-03-10T06:23:10.362Z,972
2018-03-10T06:24:11.092Z,1048
2018-03-10T06:25:11.787Z,1148
2018-03-10T06:26:12.499Z,1232
2018-03-10T06:27:13.224Z,1308
2018-03-10T06:28:13.936Z,1368
2018-03-10T06:29:14.649Z,1384
2018-03-10T06:30:15.360Z,1380
2018-03-10T06:31:16.073Z,1376
2018-03-10T06:32:16.784Z,1388
2018-03-10T06:33:17.496Z,1432
2018-03-10T06:34:18.207Z,1516
2018-03-10T06:35:18.943Z,1612
2018-03-10T06:36:19.658Z,1696
2018-03-10T06:37:20.371Z,1776
2018-03-10T06:38:21.151Z,1816
2018-03-10T06:39:21.795Z,1816
2018-03-10T06:40:22.521Z,1800
2018-03-10T06:41:23.235Z,1752
2018-03-10T06:42:23.945Z,1680
2018-03-10T06:43:24.658Z,1596
2018-03-10T06:44:25.381Z,1468
2018-03-10T06:45:26.108Z,1336
2018-03-10T06:46:26.821Z,1156
2018-03-10T06:47:27.546Z,992
2018-03-10T06:48:28.257Z,852
2018-03-10T06:49:28.970Z,788
2018-03-10T06:50:29.680Z,748
2018-03-10T06:51:30.396Z,736
2018-03-10T06:52:31.104Z,764
2018-03-10T06:53:31.814Z,836
2018-03-10T06:54:32.524Z,948
2018-03-10T06:55:33.234Z,1036
2018-03-10T06:56:33.948Z,1068
2018-03-10T06:57:34.660Z,1092
2018-03-10T06:58:35.375Z,1108
2018-03-10T06:59:36.101Z,1108
2018-03-10T07:00:36.814Z,1016
2018-03-10T07:01:37.530Z,912
2018-03-10T07:02:38.253Z,884
2018-03-10T07:03:38.965Z,888
2018-03-10T07:04:39.689Z,844
2018-03-10T07:05:40.412Z,768
2018-03-10T07:06:41.122Z,728
2018-03-10T07:07:41.833Z,768
2018-03-10T07:08:42.545Z,832
2018-03-10T07:09:43.255Z,864
2018-03-10T07:10:43.979Z,892
2018-03-10T07:11:44.690Z,900
2018-03-10T07:12:45.401Z,928
2018-03-10T07:13:46.111Z,980
2018-03-10T07:14:46.843Z,1008
2018-03-10T07:15:47.530Z,996
2018-03-10T07:16:48.269Z,1000
2018-03-10T07:17:48.981Z,1064
2018-03-10T07:18:49.695Z,1092
2018-03-10T07:19:50.408Z,1100
2018-03-10T07:20:51.120Z,1108
2018-03-10T07:21:51.831Z,1136
2018-03-10T07:22:52.545Z,1212
2018-03-10T07:23:53.260Z,1296
2018-03-10T07:24:53.967Z,1332
2018-03-10T07:25:54.678Z,1352
2018-03-10T07:26:55.423Z,1352
2018-03-10T07:27:56.135Z,1384
2018-03-10T07:28:56.860Z,1496
2018-03-10T07:29:57.587Z,1680
2018-03-10T07:30:58.301Z,1864
2018-03-10T07:31:59.075Z,2012
2018-03-10T07:32:59.725Z,2172
2018-03-10T07:34:00.438Z,2308
2018-03-10T07:35:01.148Z,2340
2018-03-10T07:36:01.860Z,2204
2018-03-10T07:37:02.574Z,2180
2018-03-10T07:38:03.286Z,2276
2018-03-10T07:39:04.009Z,2292
2018-03-10T07:40:04.735Z,2164
2018-03-10T07:41:05.448Z,2012
2018-03-10T07:42:06.176Z,1952
2018-03-10T07:43:06.980Z,2028
2018-03-10T07:44:07.612Z,2336
2018-03-10T07:45:08.327Z,2664
2018-03-10T07:46:09.060Z,3024
2018-03-10T07:47:09.788Z,3244
2018-03-10T07:48:10.502Z,3216
2018-03-10T07:49:11.214Z,3116
2018-03-10T07:50:11.927Z,3116
2018-03-10T07:51:12.639Z,3324
2018-03-10T07:52:13.360Z,3568
2018-03-10T07:53:14.067Z,3820
2018-03-10T07:54:14.782Z,3992
2018-03-10T07:55:15.509Z,4032
2018-03-10T07:56:16.224Z,4088
2018-03-10T07:57:16.939Z,4140
2018-03-10T07:58:17.652Z,4220
2018-03-10T07:59:18.373Z,4264
2018-03-10T08:00:19.087Z,4316
2018-03-10T08:01:19.809Z,4740
2018-03-10T08:02:20.527Z,4920
2018-03-10T08:03:21.245Z,5024
2018-03-10T08:04:21.958Z,5124
2018-03-10T08:05:22.672Z,5228
2018-03-10T08:06:23.388Z,5428
2018-03-10T08:07:24.105Z,5708
2018-03-10T08:08:24.823Z,5936
2018-03-10T08:09:25.537Z,6012
2018-03-10T08:10:26.256Z,6052
2018-03-10T08:11:26.975Z,5948
2018-03-10T08:12:27.702Z,5616
2018-03-10T08:13:28.432Z,5208
2018-03-10T08:14:29.151Z,4828
2018-03-10T08:15:29.864Z,4508
2018-03-10T08:16:30.580Z,4224
2018-03-10T08:17:31.307Z,3992
2018-03-10T08:18:32.022Z,3784
2018-03-10T08:19:32.741Z,3756
2018-03-10T08:20:33.457Z,4116
2018-03-10T08:21:34.173Z,4776
2018-03-10T08:22:34.888Z,5828
2018-03-10T08:23:35.605Z,7552
2018-03-10T08:24:36.323Z,10756
2018-03-10T08:25:37.040Z,14192
2018-03-10T08:26:37.757Z,15336
2018-03-10T08:27:38.477Z,13292
2018-03-10T08:28:39.206Z,10932
2018-03-10T08:29:39.937Z,10980
2018-03-10T08:30:40.655Z,11528
2018-03-10T08:31:41.374Z,12660
2018-03-10T08:32:42.127Z,12892
2018-03-10T08:33:42.811Z,13100
2018-03-10T08:34:43.530Z,13240
2018-03-10T08:35:44.263Z,12408
2018-03-10T08:36:44.982Z,9888
2018-03-10T08:37:45.712Z,9380
2018-03-10T08:38:46.431Z,10820
2018-03-10T08:39:47.150Z,12012
2018-03-10T08:40:47.872Z,12040
2018-03-10T08:41:48.590Z,12200
2018-03-10T08:42:49.309Z,13124
2018-03-10T08:43:50.029Z,14140
2018-03-10T08:44:50.749Z,14388
2018-03-10T08:45:51.469Z,15488
2018-03-10T08:46:52.203Z,15584
2018-03-10T08:47:52.923Z,16576
2018-03-10T08:48:53.643Z,15928
2018-03-10T08:49:54.378Z,14984
2018-03-10T08:50:55.107Z,14908
2018-03-10T08:51:55.839Z,14928
2018-03-10T08:52:56.561Z,14820
2018-03-10T08:53:57.283Z,13816
2018-03-10T08:54:58.006Z,14312
2018-03-10T08:55:58.722Z,13912
2018-03-10T08:56:59.441Z,14280
2018-03-10T08:58:00.163Z,14856
2018-03-10T08:59:00.889Z,14184
2018-03-10T09:00:01.620Z,13812
2018-03-10T09:01:02.352Z,13604
2018-03-10T09:02:03.076Z,13940
2018-03-10T09:03:03.792Z,13392
2018-03-10T09:04:04.514Z,13508
2018-03-10T09:05:05.234Z,13252
2018-03-10T09:06:05.954Z,13568
2018-03-10T09:07:06.674Z,13816
2018-03-10T09:08:07.394Z,14256
2018-03-10T09:09:08.116Z,14736
2018-03-10T09:10:08.835Z,14916
2018-03-10T09:11:09.569Z,14968
2018-03-10T09:12:10.291Z,15060
2018-03-10T09:13:11.012Z,15172
2018-03-10T09:14:11.733Z,14924
2018-03-10T09:15:12.452Z,14764
2018-03-10T09:16:13.176Z,15148
2018-03-10T09:17:13.896Z,17728
2018-03-10T09:18:14.617Z,15560
2018-03-10T09:19:15.338Z,16576
2018-03-10T09:20:16.070Z,16056
2018-03-10T09:21:16.781Z,16448
2018-03-10T09:22:17.501Z,17056
2018-03-10T09:23:18.226Z,17856
2018-03-10T09:24:18.948Z,28832
2018-03-10T09:25:19.670Z,22336
2018-03-10T09:26:20.394Z,22304
2018-03-10T09:27:21.118Z,24064
2018-03-10T09:28:21.852Z,18016
2018-03-10T09:29:22.574Z,19392
2018-03-10T09:30:23.295Z,17504
2018-03-10T09:31:24.018Z,15320
2018-03-10T09:32:24.755Z,15256
2018-03-10T09:33:25.477Z,15548
2018-03-10T09:34:26.197Z,16004
2018-03-10T09:35:26.931Z,16704
2018-03-10T09:36:27.666Z,17184
2018-03-10T09:37:28.388Z,17696
2018-03-10T09:38:29.109Z,18272
2018-03-10T09:39:29.832Z,19872
2018-03-10T09:40:30.554Z,25184
2018-03-10T09:41:31.277Z,21664
2018-03-10T09:42:32.013Z,24480
2018-03-10T09:43:32.735Z,23840
2018-03-10T09:44:33.460Z,25760
2018-03-10T09:45:34.183Z,27872
2018-03-10T09:46:34.904Z,27968
2018-03-10T09:47:35.630Z,30304
2018-03-10T09:48:36.356Z,30048
2018-03-10T09:49:37.081Z,46240
2018-03-10T09:50:37.813Z,38208
2018-03-10T09:51:38.536Z,34112
2018-03-10T09:52:39.261Z,37376
2018-03-10T09:53:39.990Z,52352
2018-03-10T09:54:40.720Z,41728
2018-03-10T09:55:41.447Z,29088
2018-03-10T09:56:42.175Z,37696
2018-03-10T09:57:42.905Z,55744
2018-03-10T09:58:43.633Z,49632
2018-03-10T09:59:44.363Z,55488
2018-03-10T10:00:45.112Z,47840
2018-03-10T10:01:45.821Z,56736
2018-03-10T10:02:46.552Z,54112
2018-03-10T10:03:47.283Z,42400
2018-03-10T10:04:48.014Z,45568
2018-03-10T10:05:48.750Z,47712
2018-03-10T10:06:49.482Z,43808
2018-03-10T10:07:50.229Z,47808
2018-03-10T10:08:50.966Z,44000
2018-03-10T10:09:51.699Z,45920
2018-03-10T10:10:52.432Z,42528
2018-03-10T10:11:53.166Z,44640
2018-03-10T10:12:53.914Z,43328
2018-03-10T10:13:54.649Z,47744
2018-03-10T10:14:55.384Z,48768
2018-03-10T10:15:56.121Z,44768
2018-03-10T10:16:56.868Z,44416
2018-03-10T10:17:57.605Z,39328
2018-03-10T10:18:58.339Z,36736
2018-03-10T10:19:59.087Z,36000
2018-03-10T10:20:59.825Z,34240
2018-03-10T10:22:00.559Z,36672
2018-03-10T10:23:01.289Z,37536
2018-03-10T10:24:02.023Z,36608
2018-03-10T10:25:02.771Z,41184
2018-03-10T10:26:03.503Z,42176
2018-03-10T10:27:04.274Z,46208
2018-03-10T10:28:04.974Z,47968
2018-03-10T10:29:05.708Z,48704
2018-03-10T10:30:06.444Z,42400
2018-03-10T10:31:07.182Z,45216
2018-03-10T10:32:07.919Z,50176
2018-03-10T10:33:08.663Z,43584
2018-03-10T10:34:09.396Z,41504
2018-03-10T10:35:10.128Z,51840
2018-03-10T10:36:10.864Z,52960
2018-03-10T10:37:11.596Z,54048
2018-03-10T10:38:12.333Z,52800
2018-03-10T10:39:13.065Z,49824
2018-03-10T10:40:13.798Z,50528
2018-03-10T10:41:14.543Z,50144
2018-03-10T10:42:15.286Z,52544
2018-03-10T10:43:16.020Z,53888
2018-03-10T10:44:16.754Z,51200
2018-03-10T10:45:17.492Z,46880
2018-03-10T10:46:18.236Z,48608
2018-03-10T10:47:18.981Z,26112
2018-03-10T10:48:19.710Z,29952
2018-03-10T10:49:20.448Z,39104
2018-03-10T10:50:21.187Z,31392
2018-03-10T10:51:21.923Z,32736
2018-03-10T10:52:22.651Z,35616
2018-03-10T10:53:23.396Z,40064
2018-03-10T10:54:24.122Z,24736
2018-03-10T10:55:24.857Z,22880
2018-03-10T10:56:25.593Z,25536
2018-03-10T10:57:26.335Z,28000
2018-03-10T10:58:27.069Z,32704
2018-03-10T10:59:27.807Z,33920
2018-03-10T11:00:28.536Z,28448
2018-03-10T11:01:29.268Z,31808
2018-03-10T11:02:30.001Z,45312
2018-03-10T11:03:30.734Z,37600
2018-03-10T11:04:31.467Z,32352
2018-03-10T11:05:32.196Z,29952
2018-03-10T11:06:32.928Z,43168
2018-03-10T11:07:33.661Z,40960
2018-03-10T11:08:34.392Z,31232
2018-03-10T11:09:35.125Z,26976
2018-03-10T11:10:35.856Z,25632
2018-03-10T11:11:36.590Z,23616
2018-03-10T11:12:37.333Z,26624
2018-03-10T11:13:38.065Z,26912
2018-03-10T11:14:38.791Z,30560
2018-03-10T11:15:39.522Z,24384
2018-03-10T11:16:40.249Z,24672
2018-03-10T11:17:40.978Z,25920
2018-03-10T11:18:41.710Z,26784
2018-03-10T11:19:42.441Z,33440
2018-03-10T11:20:43.170Z,25696
2018-03-10T11:21:43.951Z,24384
2018-03-10T11:22:44.637Z,32160
2018-03-10T11:23:45.378Z,41856
2018-03-10T11:24:46.107Z,57312
2018-03-10T11:25:46.840Z,54688
2018-03-10T11:26:47.584Z,39424
2018-03-10T11:27:48.318Z,42464
2018-03-10T11:28:49.051Z,34496
2018-03-10T11:29:49.784Z,38944
2018-03-10T11:30:50.517Z,58272
2018-03-10T11:31:51.251Z,55104
2018-03-10T11:32:51.984Z,43200
2018-03-10T11:33:52.721Z,50592
2018-03-10T11:34:53.449Z,41760
2018-03-10T11:35:54.183Z,35968
2018-03-10T11:36:54.930Z,33536
2018-03-10T11:37:55.677Z,35168
2018-03-10T11:38:56.407Z,38560
2018-03-10T11:39:57.137Z,32672
2018-03-10T11:40:57.871Z,32288
2018-03-10T11:41:58.602Z,27264
2018-03-10T11:42:59.334Z,25056
2018-03-10T11:44:00.063Z,19840
2018-03-10T11:45:00.805Z,20544
2018-03-10T11:46:01.536Z,19776
2018-03-10T11:47:02.268Z,22144
2018-03-10T11:48:02.997Z,20320
2018-03-10T11:49:03.727Z,20992
2018-03-10T11:50:04.450Z,23840
2018-03-10T11:51:05.178Z,24192
2018-03-10T11:52:05.905Z,29760
2018-03-10T11:53:06.643Z,29856
2018-03-10T11:54:07.369Z,34912
2018-03-10T11:55:08.096Z,36704
2018-03-10T11:56:08.822Z,29920
2018-03-10T11:57:09.562Z,29248
2018-03-10T11:58:10.290Z,24992
2018-03-10T11:59:11.016Z,23104
2018-03-10T12:00:11.744Z,21920
2018-03-10T12:01:12.472Z,22496
2018-03-10T12:02:13.196Z,27392
2018-03-10T12:03:13.921Z,24000
2018-03-10T12:04:14.649Z,25952
2018-03-10T12:05:15.377Z,23296
2018-03-10T12:06:16.103Z,25568
2018-03-10T12:07:16.833Z,24896
2018-03-10T12:08:17.558Z,27104
2018-03-10T12:09:18.295Z,24704
2018-03-10T12:10:19.023Z,25344
2018-03-10T12:11:19.761Z,20832
2018-03-10T12:12:20.482Z,19072
2018-03-10T12:13:21.208Z,20864
2018-03-10T12:14:21.936Z,18432
2018-03-10T12:15:22.662Z,19904
2018-03-10T12:16:23.389Z,19776
2018-03-10T12:17:24.125Z,17664
2018-03-10T12:18:24.861Z,22592
2018-03-10T12:19:25.589Z,20768
2018-03-10T12:20:26.312Z,22656
2018-03-10T12:21:27.047Z,22208
2018-03-10T12:22:27.776Z,22880
2018-03-10T12:23:28.511Z,20640
2018-03-10T12:24:29.235Z,18464
2018-03-10T12:25:29.967Z,17632
2018-03-10T12:26:30.698Z,18464
2018-03-10T12:27:31.421Z,18784
2018-03-10T12:28:32.142Z,18784
2018-03-10T12:29:32.876Z,19040
2018-03-10T12:30:33.601Z,21056
2018-03-10T12:31:34.326Z,18496
2018-03-10T12:32:35.061Z,18048
2018-03-10T12:33:35.784Z,21376
2018-03-10T12:34:36.521Z,22560
2018-03-10T12:35:37.246Z,22624
2018-03-10T12:36:37.983Z,18624
2018-03-10T12:37:38.706Z,18368
2018-03-10T12:38:39.442Z,18464
2018-03-10T12:39:40.164Z,19104
2018-03-10T12:40:40.901Z,19872
2018-03-10T12:41:41.625Z,20032
2018-03-10T12:42:42.351Z,21504
2018-03-10T12:43:43.075Z,20128
2018-03-10T12:44:43.799Z,19136
2018-03-10T12:45:44.520Z,18752
2018-03-10T12:46:45.243Z,18080
2018-03-10T12:47:45.967Z,17472
2018-03-10T12:48:46.690Z,17696
2018-03-10T12:49:47.414Z,17248
2018-03-10T12:50:48.138Z,16864
2018-03-10T12:51:48.860Z,16576
2018-03-10T12:52:49.585Z,15964
2018-03-10T12:53:50.309Z,15880
2018-03-10T12:54:51.045Z,15640
2018-03-10T12:55:51.767Z,15676
2018-03-10T12:56:52.490Z,15236
2018-03-10T12:57:53.216Z,15944
2018-03-10T12:58:53.983Z,17152
2018-03-10T12:59:54.663Z,16480
2018-03-10T13:00:55.397Z,15960
2018-03-10T13:01:56.119Z,15404
2018-03-10T13:02:56.842Z,14632
2018-03-10T13:03:57.567Z,14184
2018-03-10T13:04:58.292Z,13908
2018-03-10T13:05:59.013Z,13980
2018-03-10T13:06:59.750Z,13832
2018-03-10T13:08:00.469Z,13676
2018-03-10T13:09:01.190Z,13352
2018-03-10T13:10:01.932Z,12972
2018-03-10T13:11:02.649Z,12680
2018-03-10T13:12:03.370Z,12596
2018-03-10T13:13:04.107Z,12416
2018-03-10T13:14:04.830Z,12340
2018-03-10T13:15:05.552Z,12484
2018-03-10T13:16:06.274Z,12772
2018-03-10T13:17:07.009Z,13076
2018-03-10T13:18:07.730Z,13392
2018-03-10T13:19:08.491Z,13548
2018-03-10T13:20:09.174Z,13872
2018-03-10T13:21:09.897Z,14080
2018-03-10T13:22:10.632Z,14776
2018-03-10T13:23:11.355Z,14984
2018-03-10T13:24:12.078Z,15088
2018-03-10T13:25:12.816Z,15952
2018-03-10T13:26:13.548Z,15492
2018-03-10T13:27:14.271Z,15628
2018-03-10T13:28:14.993Z,16896
2018-03-10T13:29:15.720Z,17152
2018-03-10T13:30:16.440Z,17536
2018-03-10T13:31:17.161Z,18208
2018-03-10T13:32:17.896Z,18272
2018-03-10T13:33:18.652Z,17760
2018-03-10T13:34:19.343Z,16896
2018-03-10T13:35:20.067Z,15780
2018-03-10T13:36:20.789Z,15112
2018-03-10T13:37:21.524Z,14916
2018-03-10T13:38:22.245Z,15348
2018-03-10T13:39:22.968Z,15520
2018-03-10T13:40:23.692Z,15124
2018-03-10T13:41:24.422Z,13448
2018-03-10T13:42:25.151Z,13240
2018-03-10T13:43:25.875Z,13996
2018-03-10T13:44:26.599Z,14120
2018-03-10T13:45:27.324Z,13972
2018-03-10T13:46:28.050Z,13908
2018-03-10T13:47:28.780Z,14636
2018-03-10T13:48:29.504Z,15272
2018-03-10T13:49:30.227Z,15092
2018-03-10T13:50:30.950Z,14780
2018-03-10T13:51:31.686Z,15452
2018-03-10T13:52:32.420Z,15512
2018-03-10T13:53:33.156Z,15708